createdAt,value
2018-03-17T00:01:17.467Z,2.90
2018-03-17T00:03:46.115Z,2.80
2018-03-17T00:06:15.532Z,2.80
2018-03-17T00:08:44.221Z,2.80
2018-03-17T00:11:12.784Z,2.80
2018-03-17T00:13:42.281Z,2.80
2018-03-17T00:16:10.339Z,2.80
2018-03-17T00:18:38.983Z,2.80
2018-03-17T00:21:08.254Z,2.80
2018-03-17T00:23:36.626Z,2.80
2018-03-17T00:26:05.622Z,2.90
2018-03-17T00:28:34.020Z,2.80
2018-03-17T00:31:02.432Z,2.80
2018-03-17T00:33:31.572Z,2.90
2018-03-17T00:36:00.238Z,2.80
2018-03-17T00:38:28.896Z,2.80
2018-03-17T00:40:58.146Z,2.70
2018-03-17T00:43:26.603Z,2.70
2018-03-17T00:45:56.040Z,2.60
2018-03-17T00:48:24.666Z,2.60
2018-03-17T00:50:53.258Z,2.50
2018-03-17T00:53:21.630Z,2.50
2018-03-17T00:55:49.999Z,2.50
2018-03-17T00:58:18.435Z,2.50
2018-03-17T01:00:46.809Z,2.40
2018-03-17T01:03:14.857Z,2.40
2018-03-17T01:05:44.267Z,2.40
2018-03-17T01:08:13.677Z,2.50
2018-03-17T01:10:42.065Z,2.50
2018-03-17T01:13:10.539Z,2.50
2018-03-17T01:15:39.245Z,2.40
2018-03-17T01:18:07.630Z,2.40
2018-03-17T01:20:36.267Z,2.30
2018-03-17T01:23:04.742Z,2.40
2018-03-17T01:25:33.161Z,2.30
2018-03-17T01:28:01.698Z,2.30
2018-03-17T01:30:30.070Z,2.20
2018-03-17T01:32:58.766Z,2.20
2018-03-17T01:35:27.353Z,2.20
2018-03-17T01:37:55.729Z,2.20
2018-03-17T01:40:24.938Z,2.10
2018-03-17T01:42:53.322Z,2.10
2018-03-17T01:45:21.702Z,2.10
2018-03-17T01:47:50.768Z,2.10
2018-03-17T01:50:20.106Z,2.10
2018-03-17T01:52:48.774Z,2.10
2018-03-17T01:55:17.860Z,2.10
2018-03-17T01:57:46.234Z,2.10
2018-03-17T02:00:15.851Z,2.10
2018-03-17T02:02:44.530Z,2.10
2018-03-17T02:05:13.220Z,2.10
2018-03-17T02:07:41.874Z,2.10
2018-03-17T02:10:10.449Z,2.10
2018-03-17T02:12:39.789Z,2.10
2018-03-17T02:15:08.166Z,2.00
2018-03-17T02:17:36.869Z,2.10
2018-03-17T02:20:05.730Z,2.10
2018-03-17T02:22:34.434Z,2.10
2018-03-17T02:25:03.118Z,2.10
2018-03-17T02:27:31.504Z,2.10
2018-03-17T02:30:00.995Z,2.10
2018-03-17T02:32:29.574Z,2.00
2018-03-17T02:34:57.962Z,2.00
2018-03-17T02:37:26.333Z,2.00
2018-03-17T02:39:54.942Z,2.00
2018-03-17T02:42:23.619Z,2.00
2018-03-17T02:44:52.282Z,2.00
2018-03-17T02:47:20.917Z,2.00
2018-03-17T02:49:49.578Z,2.00
2018-03-17T02:52:18.023Z,2.00
2018-03-17T02:54:47.226Z,1.90
2018-03-17T02:57:15.692Z,1.90
2018-03-17T02:59:45.102Z,1.90
2018-03-17T03:02:13.873Z,1.80
2018-03-17T03:04:43.291Z,1.90
2018-03-17T03:07:11.990Z,1.90
2018-03-17T03:09:40.361Z,1.90
2018-03-17T03:12:08.857Z,1.90
2018-03-17T03:14:37.235Z,1.90
2018-03-17T03:17:06.429Z,2.00
2018-03-17T03:19:35.177Z,2.00
2018-03-17T03:22:03.875Z,2.00
2018-03-17T03:24:32.256Z,2.00
2018-03-17T03:27:00.939Z,1.90
2018-03-17T03:29:29.554Z,1.90
2018-03-17T03:31:57.944Z,1.90
2018-03-17T03:34:26.586Z,1.90
2018-03-17T03:36:55.998Z,1.90
2018-03-17T03:39:24.606Z,1.80
2018-03-17T03:41:53.242Z,1.80
2018-03-17T03:44:21.752Z,1.80
2018-03-17T03:46:50.138Z,1.80
2018-03-17T03:49:18.556Z,1.80
2018-03-17T03:51:47.534Z,1.90
2018-03-17T03:54:15.986Z,1.90
2018-03-17T03:56:44.426Z,2.00
2018-03-17T03:59:12.813Z,2.00
2018-03-17T04:01:41.199Z,2.00
2018-03-17T04:04:10.662Z,1.90
2018-03-17T04:06:39.001Z,1.90
2018-03-17T04:09:07.407Z,2.00
2018-03-17T04:11:36.550Z,1.90
2018-03-17T04:14:05.974Z,1.90
2018-03-17T04:16:34.311Z,1.80
2018-03-17T04:19:02.895Z,1.80
2018-03-17T04:21:31.093Z,1.80
2018-03-17T04:23:59.466Z,1.80
2018-03-17T04:26:28.757Z,1.70
2018-03-17T04:28:57.143Z,1.70
2018-03-17T04:31:25.553Z,1.70
2018-03-17T04:33:53.991Z,1.70
2018-03-17T04:36:22.494Z,1.70
2018-03-17T04:38:50.538Z,1.70
2018-03-17T04:41:20.106Z,1.70
2018-03-17T04:43:49.255Z,1.70
2018-03-17T04:46:17.904Z,1.70
2018-03-17T04:48:46.546Z,1.60
2018-03-17T04:51:14.946Z,1.60
2018-03-17T04:53:44.176Z,1.60
2018-03-17T04:56:12.810Z,1.60
2018-03-17T04:58:41.178Z,1.60
2018-03-17T05:01:10.558Z,1.50
2018-03-17T05:03:38.737Z,1.50
2018-03-17T05:06:07.439Z,1.40
2018-03-17T05:08:35.878Z,1.40
2018-03-17T05:11:04.962Z,1.30
2018-03-17T05:13:33.357Z,1.30
2018-03-17T05:16:02.570Z,1.30
2018-03-17T05:18:30.962Z,1.30
2018-03-17T05:20:59.621Z,1.30
2018-03-17T05:23:28.003Z,1.30
2018-03-17T05:25:56.671Z,1.30
2018-03-17T05:28:25.049Z,1.30
2018-03-17T05:30:53.431Z,1.30
2018-03-17T05:33:22.837Z,1.30
2018-03-17T05:35:52.259Z,1.30
2018-03-17T05:38:20.564Z,1.30
2018-03-17T05:40:49.186Z,1.30
2018-03-17T05:43:17.823Z,1.40
2018-03-17T05:45:46.483Z,1.50
2018-03-17T05:48:14.871Z,1.50
2018-03-17T05:50:43.530Z,1.60
2018-03-17T05:53:11.918Z,1.60
2018-03-17T05:55:40.296Z,1.70
2018-03-17T05:58:08.891Z,1.80
2018-03-17T06:00:37.430Z,1.90
2018-03-17T06:03:06.099Z,1.90
2018-03-17T06:05:34.762Z,2.00
2018-03-17T06:08:04.250Z,2.00
2018-03-17T06:10:33.730Z,2.00
2018-03-17T06:13:02.406Z,2.10
2018-03-17T06:15:47.454Z,2.20
2018-03-17T06:18:15.947Z,2.20
2018-03-17T06:20:45.184Z,2.20
2018-03-17T06:23:13.778Z,2.20
2018-03-17T06:25:42.168Z,2.20
2018-03-17T06:28:10.602Z,2.20
2018-03-17T06:30:39.254Z,2.20
2018-03-17T06:33:07.818Z,2.20
2018-03-17T06:35:36.990Z,2.20
2018-03-17T06:38:05.602Z,2.20
2018-03-17T06:40:34.067Z,2.20
2018-03-17T06:43:02.850Z,2.20
2018-03-17T06:45:31.586Z,2.20
2018-03-17T06:48:01.196Z,2.30
2018-03-17T06:50:29.613Z,2.30
2018-03-17T06:52:58.249Z,2.40
2018-03-17T06:55:27.138Z,2.70
2018-03-17T06:57:55.573Z,3.10
2018-03-17T07:00:23.969Z,3.30
2018-03-17T07:02:53.667Z,3.30
2018-03-17T07:05:23.694Z,3.30
2018-03-17T07:07:53.363Z,3.50
2018-03-17T07:10:21.780Z,3.40
2018-03-17T07:12:51.917Z,3.40
2018-03-17T07:15:20.209Z,3.40
2018-03-17T07:17:48.647Z,3.50
2018-03-17T07:20:17.223Z,3.60
2018-03-17T07:22:46.128Z,3.50
2018-03-17T07:25:16.061Z,3.50
2018-03-17T07:27:52.881Z,3.50
2018-03-17T07:30:22.547Z,3.50
2018-03-17T07:32:53.984Z,3.60
2018-03-17T07:35:22.650Z,3.60
2018-03-17T07:37:51.807Z,3.80
2018-03-17T07:40:20.513Z,3.80
2018-03-17T07:42:49.273Z,3.80
2018-03-17T07:45:18.820Z,4.00
2018-03-17T07:47:47.751Z,4.00
2018-03-17T07:50:16.465Z,3.80
2018-03-17T07:52:45.501Z,3.90
2018-03-17T07:55:14.823Z,3.90
2018-03-17T07:57:43.250Z,3.90
2018-03-17T08:00:11.927Z,3.80
2018-03-17T08:02:40.315Z,3.90
2018-03-17T08:05:08.859Z,3.70
2018-03-17T08:07:37.635Z,3.80
2018-03-17T08:10:05.697Z,4.00
2018-03-17T08:12:34.185Z,4.10
2018-03-17T08:15:03.321Z,4.20
2018-03-17T08:17:32.075Z,4.20
2018-03-17T08:20:01.027Z,4.20
2018-03-17T08:22:29.748Z,4.10
2018-03-17T08:24:59.186Z,3.80
2018-03-17T08:27:28.031Z,3.80
2018-03-17T08:29:57.673Z,3.90
2018-03-17T08:32:27.117Z,3.90
2018-03-17T08:34:56.606Z,4.00
2018-03-17T08:37:25.070Z,4.00
2018-03-17T08:39:53.823Z,4.20
2018-03-17T08:42:22.364Z,4.30
2018-03-17T08:44:55.096Z,4.40
2018-03-17T08:47:24.149Z,4.40
2018-03-17T08:49:53.441Z,4.40
2018-03-17T08:52:22.705Z,4.40
2018-03-17T08:54:51.355Z,4.30
2018-03-17T08:57:20.955Z,4.50
2018-03-17T08:59:49.227Z,4.50
2018-03-17T09:02:18.372Z,4.50
2018-03-17T09:04:46.770Z,4.50
2018-03-17T09:07:15.933Z,4.70
2018-03-17T09:09:44.777Z,4.70
2018-03-17T09:12:14.213Z,4.60
2018-03-17T09:14:42.882Z,4.60
2018-03-17T09:17:12.189Z,4.60
2018-03-17T09:19:41.167Z,4.80
2018-03-17T09:22:09.449Z,4.90
2018-03-17T09:24:38.431Z,5.00
2018-03-17T09:27:07.877Z,5.00
2018-03-17T09:29:36.494Z,5.00
2018-03-17T09:32:04.779Z,5.10
2018-03-17T09:34:33.180Z,5.20
2018-03-17T09:37:01.917Z,5.20
2018-03-17T09:39:30.577Z,5.20
2018-03-17T09:41:59.059Z,5.10
2018-03-17T09:44:27.763Z,5.20
2018-03-17T09:46:56.743Z,5.20
2018-03-17T09:49:25.399Z,5.20
2018-03-17T09:51:53.869Z,5.10
2018-03-17T09:54:22.390Z,5.10
2018-03-17T09:56:54.923Z,5.00
2018-03-17T09:59:23.316Z,4.90
2018-03-17T10:01:51.717Z,4.90
2018-03-17T10:04:20.091Z,4.80
2018-03-17T10:06:48.752Z,4.90
2018-03-17T10:09:17.159Z,4.90
2018-03-17T10:11:45.550Z,5.00
2018-03-17T10:14:14.190Z,4.90
2018-03-17T10:16:42.710Z,4.80
2018-03-17T10:19:11.402Z,4.80
2018-03-17T10:21:40.173Z,4.70
2018-03-17T10:24:10.120Z,4.70
2018-03-17T10:26:38.496Z,4.70
2018-03-17T10:29:07.278Z,4.70
2018-03-17T10:31:35.946Z,4.70
2018-03-17T10:34:04.068Z,4.80
2018-03-17T10:36:32.862Z,4.80
2018-03-17T10:39:01.538Z,4.80
2018-03-17T10:41:30.154Z,4.80
2018-03-17T10:43:59.196Z,4.80
2018-03-17T10:46:28.078Z,4.80
2018-03-17T10:48:56.687Z,4.70
2018-03-17T10:51:25.931Z,4.90
2018-03-17T10:53:54.494Z,4.80
2018-03-17T10:56:23.151Z,4.80
2018-03-17T10:58:52.423Z,4.70
2018-03-17T11:01:21.381Z,4.50
2018-03-17T11:03:50.177Z,4.50
2018-03-17T11:06:18.377Z,4.60
2018-03-17T11:08:47.001Z,4.50
2018-03-17T11:11:15.514Z,4.50
2018-03-17T11:13:44.281Z,4.40
2018-03-17T11:16:12.675Z,4.40
2018-03-17T11:18:41.375Z,4.40
2018-03-17T11:21:10.049Z,4.40
2018-03-17T11:23:38.442Z,4.30
2018-03-17T11:26:07.815Z,4.20
2018-03-17T11:28:36.216Z,4.20
2018-03-17T11:31:05.134Z,4.20
2018-03-17T11:33:33.626Z,4.10
2018-03-17T11:36:02.354Z,4.10
2018-03-17T11:38:31.018Z,4.10
2018-03-17T11:40:59.402Z,4.00
2018-03-17T11:43:27.788Z,4.00
2018-03-17T11:45:56.485Z,4.00
2018-03-17T11:48:24.858Z,4.10
2018-03-17T11:50:53.243Z,3.90
2018-03-17T11:53:21.914Z,3.90
2018-03-17T11:55:50.634Z,3.90
2018-03-17T11:58:19.413Z,3.90
2018-03-17T12:00:47.930Z,3.90
2018-03-17T12:03:17.376Z,4.00
2018-03-17T12:05:45.776Z,4.00
2018-03-17T12:08:14.437Z,4.00
2018-03-17T12:10:43.100Z,4.10
2018-03-17T12:13:11.570Z,4.10
2018-03-17T12:15:40.323Z,4.10
2018-03-17T12:18:08.929Z,4.10
2018-03-17T12:20:38.376Z,4.00
2018-03-17T12:23:06.854Z,4.00
2018-03-17T12:25:35.331Z,4.10
2018-03-17T12:28:03.725Z,4.00
2018-03-17T12:30:32.375Z,4.00
2018-03-17T12:33:01.075Z,4.00
2018-03-17T12:35:30.347Z,3.80
2018-03-17T12:37:59.093Z,3.70
2018-03-17T12:40:27.678Z,3.70
2018-03-17T12:42:58.064Z,3.80
2018-03-17T12:45:26.727Z,3.70
2018-03-17T12:47:55.263Z,3.70
2018-03-17T12:50:24.419Z,3.50
2018-03-17T12:52:53.094Z,3.50
2018-03-17T12:55:21.753Z,3.60
2018-03-17T12:57:51.098Z,3.50
2018-03-17T13:00:19.478Z,3.40
2018-03-17T13:02:47.940Z,3.50
2018-03-17T13:05:16.092Z,3.50
2018-03-17T13:07:44.544Z,3.50
2018-03-17T13:10:14.130Z,3.50
2018-03-17T13:12:42.765Z,3.40
2018-03-17T13:15:11.266Z,3.40
2018-03-17T13:17:40.094Z,3.40
2018-03-17T13:20:08.563Z,3.40
2018-03-17T13:22:48.457Z,3.40
2018-03-17T13:25:16.689Z,3.50
2018-03-17T13:27:56.524Z,3.50
2018-03-17T13:30:25.689Z,3.50
2018-03-17T13:32:59.857Z,3.50
2018-03-17T13:35:39.381Z,3.50
2018-03-17T13:38:07.843Z,3.50
2018-03-17T13:40:43.090Z,3.50
2018-03-17T13:43:11.980Z,3.50
2018-03-17T13:45:40.405Z,3.50
2018-03-17T13:48:08.961Z,3.50
2018-03-17T13:50:37.691Z,3.40
2018-03-17T13:53:05.804Z,3.40
2018-03-17T13:55:34.203Z,3.40
2018-03-17T13:58:02.695Z,3.40
2018-03-17T14:00:31.397Z,3.30
2018-03-17T14:02:59.791Z,3.30
2018-03-17T14:05:28.266Z,3.20
2018-03-17T14:07:57.038Z,3.20
2018-03-17T14:10:26.678Z,3.30
2018-03-17T14:12:55.224Z,3.20
2018-03-17T14:15:24.680Z,3.30
2018-03-17T14:17:54.150Z,3.30
2018-03-17T14:20:22.565Z,3.30
2018-03-17T14:22:51.399Z,3.30
2018-03-17T14:25:20.136Z,3.30
2018-03-17T14:27:48.802Z,3.20
2018-03-17T14:30:17.568Z,3.20
2018-03-17T14:32:47.252Z,3.10
2018-03-17T14:35:16.703Z,3.10
2018-03-17T14:37:45.309Z,3.00
2018-03-17T14:40:14.088Z,3.10
2018-03-17T14:42:42.738Z,3.00
2018-03-17T14:45:11.416Z,3.00
2018-03-17T14:47:40.840Z,3.10
2018-03-17T14:50:09.226Z,3.00
2018-03-17T14:52:38.075Z,3.00
2018-03-17T14:55:06.474Z,3.00
2018-03-17T14:57:34.978Z,3.00
2018-03-17T15:00:03.309Z,2.90
2018-03-17T15:02:31.722Z,2.80
2018-03-17T15:05:00.390Z,2.80
2018-03-17T15:07:29.306Z,2.80
2018-03-17T15:09:57.757Z,2.80
2018-03-17T15:12:27.409Z,2.70
2018-03-17T15:14:56.569Z,2.80
2018-03-17T15:17:25.082Z,2.70
2018-03-17T15:19:54.254Z,2.80
2018-03-17T15:22:23.532Z,2.70
2018-03-17T15:24:52.017Z,2.70
2018-03-17T15:27:20.481Z,2.60
2018-03-17T15:29:48.869Z,2.60
2018-03-17T15:32:17.365Z,2.60
2018-03-17T15:34:46.171Z,2.60
2018-03-17T15:37:14.959Z,2.50
2018-03-17T15:39:43.451Z,2.60
2018-03-17T15:42:12.111Z,2.60
2018-03-17T15:44:40.833Z,2.50
2018-03-17T15:47:09.663Z,2.50
2018-03-17T15:49:38.390Z,2.50
2018-03-17T15:52:07.015Z,2.40
2018-03-17T15:54:35.611Z,2.40
2018-03-17T15:57:03.939Z,2.40
2018-03-17T15:59:32.356Z,2.40
2018-03-17T16:02:01.115Z,2.40
2018-03-17T16:04:29.735Z,2.40
2018-03-17T16:06:58.205Z,2.30
2018-03-17T16:09:27.658Z,2.30
2018-03-17T16:11:56.040Z,2.30
2018-03-17T16:14:25.466Z,2.30
2018-03-17T16:16:54.014Z,2.30
2018-03-17T16:19:22.522Z,2.40
2018-03-17T16:21:50.910Z,2.40
2018-03-17T16:24:19.308Z,2.40
2018-03-17T16:26:48.026Z,2.50
2018-03-17T16:29:16.461Z,2.50
2018-03-17T16:31:44.896Z,2.40
2018-03-17T16:34:13.330Z,2.40
2018-03-17T16:36:42.767Z,2.30
2018-03-17T16:39:11.004Z,2.30
2018-03-17T16:41:39.428Z,2.30
2018-03-17T16:44:07.920Z,2.30
2018-03-17T16:46:36.143Z,2.20
2018-03-17T16:49:04.735Z,2.20
2018-03-17T16:51:33.131Z,2.20
2018-03-17T16:54:01.465Z,2.10
2018-03-17T16:56:30.553Z,2.10
2018-03-17T16:58:59.218Z,2.00
2018-03-17T17:01:27.925Z,2.10
2018-03-17T17:03:56.305Z,2.00
2018-03-17T17:06:24.717Z,2.10
2018-03-17T17:08:53.110Z,2.10
2018-03-17T17:11:21.816Z,2.20
2018-03-17T17:13:50.724Z,2.10
2018-03-17T17:16:19.491Z,2.10
2018-03-17T17:18:49.243Z,2.10
2018-03-17T17:21:17.669Z,2.10
2018-03-17T17:23:46.237Z,2.10
2018-03-17T17:26:14.945Z,2.10
2018-03-17T17:28:43.441Z,2.10
2018-03-17T17:31:12.122Z,2.10
2018-03-17T17:33:40.703Z,2.10
2018-03-17T17:36:09.596Z,2.10
2018-03-17T17:38:38.146Z,2.10
2018-03-17T17:41:06.813Z,2.00
2018-03-17T17:43:35.416Z,2.00
2018-03-17T17:46:03.887Z,1.90
2018-03-17T17:48:32.562Z,1.90
2018-03-17T17:51:01.228Z,1.90
2018-03-17T17:53:29.770Z,1.80
2018-03-17T17:55:58.309Z,1.80
2018-03-17T17:58:26.726Z,1.80
2018-03-17T18:00:56.176Z,1.80
2018-03-17T18:03:24.653Z,1.80
2018-03-17T18:05:54.878Z,1.70
2018-03-17T18:08:24.386Z,1.70
2018-03-17T18:10:53.057Z,1.70
2018-03-17T18:13:22.900Z,1.70
2018-03-17T18:15:51.589Z,1.70
2018-03-17T18:18:19.988Z,1.70
2018-03-17T18:20:49.542Z,1.50
2018-03-17T18:23:18.991Z,1.50
2018-03-17T18:25:47.705Z,1.50
2018-03-17T18:28:16.378Z,1.50
2018-03-17T18:30:44.594Z,1.50
2018-03-17T18:33:14.664Z,1.40
2018-03-17T18:35:43.592Z,1.40
2018-03-17T18:38:13.212Z,1.30
2018-03-17T18:40:41.610Z,1.30
2018-03-17T18:43:10.060Z,1.30
2018-03-17T18:45:38.438Z,1.30
2018-03-17T18:48:07.891Z,1.30
2018-03-17T18:50:36.516Z,1.30
2018-03-17T18:53:05.029Z,1.30
2018-03-17T18:55:33.829Z,1.30
2018-03-17T18:58:02.585Z,1.30
2018-03-17T19:00:31.009Z,1.20
2018-03-17T19:03:02.818Z,1.20
2018-03-17T19:05:31.549Z,1.20
2018-03-17T19:08:01.458Z,1.20
2018-03-17T19:10:30.512Z,1.20
2018-03-17T19:12:59.049Z,1.30
2018-03-17T19:15:28.237Z,1.30
2018-03-17T19:17:57.718Z,1.30
2018-03-17T19:20:26.183Z,1.30
2018-03-17T19:22:55.801Z,1.20
2018-03-17T19:25:24.495Z,1.20
2018-03-17T19:27:52.910Z,1.10
2018-03-17T19:30:22.074Z,0.90
2018-03-17T19:32:50.465Z,0.90
2018-03-17T19:35:19.568Z,0.90
2018-03-17T19:37:49.053Z,0.80
2018-03-17T19:40:17.808Z,0.80
2018-03-17T19:42:47.379Z,0.80
2018-03-17T19:45:16.087Z,0.80
2018-03-17T19:47:44.655Z,0.90
2018-03-17T19:50:14.177Z,0.90
2018-03-17T19:52:43.616Z,0.80
2018-03-17T19:55:12.283Z,0.80
2018-03-17T19:57:40.866Z,0.80
2018-03-17T20:00:09.330Z,0.70
2018-03-17T20:02:38.009Z,0.60
2018-03-17T20:05:06.247Z,0.60
2018-03-17T20:07:34.907Z,0.60
2018-03-17T20:10:03.259Z,0.50
2018-03-17T20:12:31.647Z,0.50
2018-03-17T20:15:00.307Z,0.50
2018-03-17T20:17:30.938Z,0.50
2018-03-17T20:19:59.199Z,0.50
2018-03-17T20:22:27.863Z,0.40
2018-03-17T20:24:56.206Z,0.40
2018-03-17T20:27:24.594Z,0.30
2018-03-17T20:29:53.382Z,0.30
2018-03-17T20:32:22.878Z,0.30
2018-03-17T20:34:51.545Z,0.30
2018-03-17T20:37:20.593Z,0.20
2018-03-17T20:39:49.351Z,0.20
2018-03-17T20:42:18.137Z,0.20
2018-03-17T20:44:46.912Z,0.30
2018-03-17T20:47:15.330Z,0.20
2018-03-17T20:49:43.739Z,0.10
2018-03-17T20:52:13.327Z,0.10
2018-03-17T20:54:42.028Z,0.10
2018-03-17T20:57:10.686Z,0.10
2018-03-17T20:59:39.346Z,0.10
2018-03-17T21:02:07.900Z,0.00
2018-03-17T21:04:36.685Z,0.00
2018-03-17T21:07:05.521Z,0.00
2018-03-17T21:09:33.941Z,0.00
2018-03-17T21:12:02.321Z,-0.10
2018-03-17T21:14:30.719Z,-0.10
2018-03-17T21:16:58.907Z,0.00
2018-03-17T21:19:27.463Z,0.00
2018-03-17T21:21:55.857Z,-0.10
2018-03-17T21:24:24.578Z,-0.10
2018-03-17T21:26:54.110Z,-0.10
2018-03-17T21:29:22.823Z,-0.10
2018-03-17T21:31:51.303Z,-0.10
2018-03-17T21:34:19.967Z,0.00
2018-03-17T21:36:48.644Z,-0.10
2018-03-17T21:39:17.979Z,-0.20
2018-03-17T21:41:46.367Z,-0.20
2018-03-17T21:44:15.031Z,-0.10
2018-03-17T21:46:44.446Z,-0.30
2018-03-17T21:49:12.934Z,-0.30
2018-03-17T21:51:41.347Z,-0.30
2018-03-17T21:54:10.778Z,-0.30
2018-03-17T21:56:39.166Z,-0.30
2018-03-17T21:59:07.564Z,-0.20
2018-03-17T22:01:35.962Z,-0.30
2018-03-17T22:04:05.432Z,-0.30
2018-03-17T22:06:34.078Z,-0.30
2018-03-17T22:09:02.990Z,-0.20
2018-03-17T22:11:31.974Z,-0.20
2018-03-17T22:14:01.422Z,-0.30
2018-03-17T22:16:31.010Z,-0.30
2018-03-17T22:18:59.590Z,-0.30
2018-03-17T22:21:30.046Z,-0.40
2018-03-17T22:23:58.713Z,-0.40
2018-03-17T22:26:27.894Z,-0.40
2018-03-17T22:28:56.572Z,-0.40
2018-03-17T22:31:24.973Z,-0.30
2018-03-17T22:33:53.638Z,-0.30
2018-03-17T22:36:22.312Z,-0.30
2018-03-17T22:38:50.725Z,-0.30
2018-03-17T22:41:19.888Z,-0.40
2018-03-17T22:43:48.282Z,-0.40
2018-03-17T22:46:16.768Z,-0.30
2018-03-17T22:48:45.441Z,-0.50
2018-03-17T22:51:14.059Z,-0.50
2018-03-17T22:53:42.613Z,-0.50
2018-03-17T22:56:10.997Z,-0.50
2018-03-17T22:58:39.475Z,-0.50
2018-03-17T23:01:07.935Z,-0.60
2018-03-17T23:03:36.606Z,-0.50
2018-03-17T23:06:05.018Z,-0.50
2018-03-17T23:08:33.686Z,-0.50
2018-03-17T23:11:03.100Z,-0.50
2018-03-17T23:13:31.607Z,-0.60
2018-03-17T23:15:59.994Z,-0.50
2018-03-17T23:18:28.578Z,-0.60
2018-03-17T23:20:57.235Z,-0.60
2018-03-17T23:23:25.818Z,-0.70
2018-03-17T23:25:54.207Z,-0.70
2018-03-17T23:28:22.694Z,-0.70
2018-03-17T23:30:51.361Z,-0.70
2018-03-17T23:33:19.792Z,-0.80
2018-03-17T23:35:48.455Z,-0.80
2018-03-17T23:38:17.134Z,-0.80
2018-03-17T23:40:45.610Z,-0.80
2018-03-17T23:43:14.102Z,-0.70
2018-03-17T23:45:42.445Z,-0.70
2018-03-17T23:48:11.539Z,-0.80
2018-03-17T23:50:40.105Z,-0.80
2018-03-17T23:53:08.401Z,-0.80
2018-03-17T23:55:36.904Z,-0.80
2018-03-17T23:58:05.383Z,-0.90
